Time;durP1;ratioP1;P1;durP2;ratioP2;P2;SDS_P1;SDS_P2;PMS_P1;PMS_P2;Temp;Humidity;BMP_temperature;BMP_pressure;BME280_temperature;BME280_humidity;BME280_pressure;Samples;Min_cycle;Max_cycle;Signal;HPM_P1;HPM_P2
2021/07/17 00:00:14;;;;;;;8.55;6.75;;;;;;;18.54;100.00;97538.75;5012030;28;20392;-76
2021/07/17 00:02:40;;;;;;;10.75;7.15;;;;;;;18.33;100.00;97529.88;5011652;28;20080;-77
2021/07/17 00:05:08;;;;;;;8.50;7.18;;;;;;;18.22;100.00;97528.00;4995994;28;20033;-78
2021/07/17 00:07:33;;;;;;;10.48;8.60;;;;;;;18.23;100.00;97529.59;5013087;28;20514;-79
2021/07/17 00:09:58;;;;;;;8.07;7.15;;;;;;;18.27;100.00;97538.78;5011805;28;20030;-77
2021/07/17 00:12:24;;;;;;;8.75;7.88;;;;;;;18.24;100.00;97539.50;5013880;28;20088;-78
2021/07/17 00:14:49;;;;;;;8.48;7.43;;;;;;;18.18;100.00;97527.88;5012932;28;20464;-78
2021/07/17 00:17:15;;;;;;;8.40;7.47;;;;;;;18.22;100.00;97514.94;4995099;28;20026;-78
2021/07/17 00:19:41;;;;;;;11.60;10.23;;;;;;;18.14;100.00;97516.72;5011652;28;20040;-76
2021/07/17 00:22:07;;;;;;;11.20;8.73;;;;;;;18.23;100.00;97521.31;5013998;28;20565;-78
2021/07/17 00:24:32;;;;;;;10.73;8.52;;;;;;;18.22;100.00;97514.16;4995181;28;20026;-77
2021/07/17 00:26:57;;;;;;;10.52;8.77;;;;;;;18.32;100.00;97506.13;5012735;28;20124;-77
2021/07/17 00:29:23;;;;;;;13.00;9.95;;;;;;;18.29;100.00;97497.72;4994735;28;20406;-78
2021/07/17 00:31:48;;;;;;;9.90;8.68;;;;;;;18.39;100.00;97503.50;5011230;28;20033;-79
2021/07/17 00:34:14;;;;;;;12.05;9.82;;;;;;;18.28;100.00;97494.16;5012673;28;20117;-77
2021/07/17 00:36:39;;;;;;;10.55;7.50;;;;;;;18.45;100.00;97499.31;4994772;28;20034;-78
2021/07/17 00:39:04;;;;;;;13.98;9.75;;;;;;;18.35;100.00;97488.00;5012045;28;20042;-77
2021/07/17 00:41:30;;;;;;;10.65;8.32;;;;;;;18.53;100.00;97494.78;5012511;28;20091;-78
2021/07/17 00:43:56;;;;;;;13.25;8.48;;;;;;;18.47;100.00;97494.25;5012244;28;20026;-76
2021/07/17 00:46:21;;;;;;;9.02;7.68;;;;;;;18.38;100.00;97488.06;4994503;28;20025;-76
2021/07/17 00:48:47;;;;;;;10.75;7.35;;;;;;;18.28;100.00;97488.59;5012222;28;20037;-77
2021/07/17 00:51:15;;;;;;;9.20;7.53;;;;;;;18.22;100.00;97487.25;4994254;28;20022;-76
2021/07/17 00:53:41;;;;;;;11.25;8.20;;;;;;;18.31;100.00;97481.53;5012210;28;20076;-78
2021/07/17 00:56:09;;;;;;;9.23;7.70;;;;;;;18.27;100.00;97469.56;4995066;28;20021;-78
2021/07/17 00:58:39;;;;;;;10.02;8.27;;;;;;;18.14;100.00;97466.88;4994683;28;20026;-78
2021/07/17 01:01:05;;;;;;;9.45;7.88;;;;;;;18.09;100.00;97455.28;4994652;28;20029;-77
2021/07/17 01:03:31;;;;;;;12.30;7.78;;;;;;;18.25;100.00;97444.22;4994549;28;20474;-77
2021/07/17 01:05:56;;;;;;;11.07;8.82;;;;;;;18.24;100.00;97462.78;5012106;28;20068;-76
2021/07/17 01:08:22;;;;;;;9.85;8.23;;;;;;;18.28;100.00;97460.09;4994590;28;20096;-79
2021/07/17 01:10:47;;;;;;;8.60;7.78;;;;;;;18.10;100.00;97454.94;4994337;28;20034;-80
2021/07/17 01:13:13;;;;;;;10.70;9.02;;;;;;;17.94;100.00;97445.81;4994397;28;20505;-78
2021/07/17 01:15:40;;;;;;;12.40;9.02;;;;;;;17.91;100.00;97440.19;5010315;28;20026;-76
2021/07/17 01:18:05;;;;;;;10.40;9.50;;;;;;;17.78;100.00;97428.38;5011691;28;20395;-77
2021/07/17 01:20:32;;;;;;;11.35;10.20;;;;;;;17.73;100.00;97428.63;5011625;28;20030;-78
2021/07/17 01:22:58;;;;;;;11.43;9.48;;;;;;;17.76;100.00;97425.16;4993761;28;20088;-77
2021/07/17 01:25:26;;;;;;;14.95;10.65;;;;;;;17.74;100.00;97433.00;5011667;28;20038;-76
2021/07/17 01:27:56;;;;;;;12.20;9.32;;;;;;;17.61;100.00;97431.47;5011321;28;20152;-75
2021/07/17 01:30:27;;;;;;;13.23;11.48;;;;;;;17.53;100.00;97429.63;4993596;28;20034;-76
2021/07/17 01:32:54;;;;;;;11.57;10.07;;;;;;;17.64;100.00;97431.56;5011110;28;20419;-77
2021/07/17 01:35:19;;;;;;;13.20;10.10;;;;;;;17.94;100.00;97433.94;4992516;28;20075;-80
2021/07/17 01:37:45;;;;;;;14.68;10.55;;;;;;;17.90;100.00;97428.31;4995729;28;20030;-77
2021/07/17 01:40:18;;;;;;;11.32;9.77;;;;;;;17.99;100.00;97426.16;5011292;28;20013;-76
2021/07/17 01:42:45;;;;;;;10.40;9.30;;;;;;;18.04;100.00;97416.81;5029543;28;20029;-76
2021/07/17 01:45:11;;;;;;;11.10;9.98;;;;;;;18.08;100.00;97429.56;5011619;28;20110;-76
2021/07/17 01:47:37;;;;;;;10.02;8.98;;;;;;;18.15;100.00;97420.63;5029604;28;20029;-75
2021/07/17 01:50:08;;;;;;;12.93;9.80;;;;;;;18.13;100.00;97422.97;5013098;28;20067;-77
2021/07/17 01:52:33;;;;;;;9.55;8.50;;;;;;;18.11;100.00;97428.03;5031043;28;20445;-77
2021/07/17 01:54:59;;;;;;;10.88;9.50;;;;;;;18.10;100.00;97418.94;5031292;28;20029;-79
2021/07/17 01:57:25;;;;;;;9.55;8.60;;;;;;;18.13;100.00;97432.06;5012922;28;20032;-77
2021/07/17 01:59:51;;;;;;;8.85;8.00;;;;;;;18.16;100.00;97420.28;5031056;28;20061;-78
2021/07/17 02:02:16;;;;;;;10.48;8.57;;;;;;;18.17;100.00;97419.09;5012949;28;20017;-79
2021/07/17 02:04:42;;;;;;;10.77;7.72;;;;;;;18.06;100.00;97420.81;5030487;28;20038;-78
2021/07/17 02:07:07;;;;;;;9.27;8.38;;;;;;;18.01;100.00;97434.91;5030850;28;20021;-77
2021/07/17 02:09:33;;;;;;;11.60;9.57;;;;;;;17.90;100.00;97441.34;5012718;28;20585;-80
2021/07/17 02:12:00;;;;;;;11.40;9.18;;;;;;;17.86;100.00;97427.41;5033330;28;20022;-76
2021/07/17 02:14:26;;;;;;;14.48;10.00;;;;;;;17.79;100.00;97432.78;5013056;28;20029;-76
2021/07/17 02:16:52;;;;;;;10.38;9.13;;;;;;;17.71;100.00;97421.84;5029146;28;20398;-78
2021/07/17 02:19:20;;;;;;;10.48;9.05;;;;;;;17.67;100.00;97417.03;5012387;28;20040;-77
2021/07/17 02:21:50;;;;;;;12.32;10.13;;;;;;;17.65;100.00;97426.84;5030578;28;20049;-77
2021/07/17 02:24:16;;;;;;;10.40;8.63;;;;;;;17.63;100.00;97423.63;5030608;28;20026;-76
2021/07/17 02:26:46;;;;;;;8.80;7.93;;;;;;;17.80;100.00;97420.53;5030639;28;20474;-78
2021/07/17 02:29:13;;;;;;;8.98;7.95;;;;;;;17.77;100.00;97407.41;5030272;28;20095;-78
2021/07/17 02:31:38;;;;;;;9.23;8.13;;;;;;;18.00;100.00;97405.63;5029085;28;20030;-76
2021/07/17 02:34:05;;;;;;;9.00;8.10;;;;;;;17.95;100.00;97408.66;5018125;28;20047;-77
2021/07/17 02:36:31;;;;;;;14.48;8.63;;;;;;;18.02;100.00;97396.97;5035171;28;20124;-78
2021/07/17 02:38:56;;;;;;;10.68;7.53;;;;;;;18.02;100.00;97386.69;5036410;28;20543;-77
2021/07/17 02:41:22;;;;;;;8.35;7.22;;;;;;;18.08;100.00;97379.72;5017712;28;20037;-77
2021/07/17 02:43:48;;;;;;;8.50;7.47;;;;;;;18.09;100.00;97373.03;5036707;28;20124;-79
2021/07/17 02:46:14;;;;;;;11.70;8.85;;;;;;;18.05;100.00;97365.78;5018719;28;20389;-77
2021/07/17 02:48:39;;;;;;;10.80;8.65;;;;;;;17.98;100.00;97352.59;5019249;28;20036;-78
2021/07/17 02:51:05;;;;;;;10.25;9.10;;;;;;;17.91;100.00;97357.97;5019047;28;20542;-77
2021/07/17 02:53:30;;;;;;;12.77;9.07;;;;;;;17.87;100.00;97354.31;5018940;28;20025;-78
2021/07/17 02:55:55;;;;;;;10.50;7.90;;;;;;;18.05;100.00;97358.31;5019276;28;20029;-78
2021/07/17 02:58:21;;;;;;;10.43;8.50;;;;;;;18.09;100.00;97355.63;5036846;28;20462;-78
2021/07/17 03:00:53;;;;;;;9.50;8.55;;;;;;;18.16;100.00;97339.19;5036527;28;20120;-79
2021/07/17 03:03:18;;;;;;;10.75;9.68;;;;;;;17.95;100.00;97335.91;5035437;28;20218;-79
2021/07/17 03:05:44;;;;;;;8.93;8.07;;;;;;;18.12;100.00;97341.88;5018560;28;20120;-75
2021/07/17 03:08:12;;;;;;;9.63;8.43;;;;;;;17.93;100.00;97335.44;5019064;28;20548;-77
2021/07/17 03:10:37;;;;;;;8.98;7.80;;;;;;;18.04;100.00;97334.53;5035555;28;20037;-79
2021/07/17 03:13:03;;;;;;;9.55;7.40;;;;;;;18.08;100.00;97343.75;5018658;28;20030;-78
2021/07/17 03:15:28;;;;;;;8.73;7.80;;;;;;;17.96;100.00;97332.78;5036727;28;20044;-78
2021/07/17 03:17:53;;;;;;;11.27;8.82;;;;;;;17.92;100.00;97350.44;5036487;28;20113;-80
2021/07/17 03:20:19;;;;;;;11.88;9.43;;;;;;;17.74;100.00;97321.53;5036664;28;20025;-78
2021/07/17 03:22:44;;;;;;;9.18;8.23;;;;;;;17.91;100.00;97344.13;5034976;28;20025;-78
2021/07/17 03:25:10;;;;;;;9.88;8.32;;;;;;;17.97;100.00;97336.34;5019139;28;20065;-79
2021/07/17 03:27:35;;;;;;;11.10;7.70;;;;;;;18.20;100.00;97343.63;5018497;28;20108;-79
2021/07/17 03:30:03;;;;;;;8.95;8.05;;;;;;;17.88;100.00;97346.81;5032191;28;20078;-77
2021/07/17 03:32:29;;;;;;;11.80;8.45;;;;;;;17.74;100.00;97350.00;5036069;28;20033;-77
2021/07/17 03:34:55;;;;;;;14.75;8.80;;;;;;;17.67;100.00;97336.00;5036012;28;20018;-77
2021/07/17 03:37:21;;;;;;;9.57;8.68;;;;;;;17.57;100.00;97342.06;5018345;28;20037;-77
2021/07/17 03:39:47;;;;;;;10.13;8.40;;;;;;;17.58;100.00;97343.66;5036177;28;20013;-78
2021/07/17 03:42:12;;;;;;;11.18;8.85;;;;;;;17.59;100.00;97346.09;5035946;28;20487;-74
2021/07/17 03:44:38;;;;;;;11.10;9.85;;;;;;;17.64;100.00;97350.53;5016617;28;20069;-74
2021/07/17 03:47:03;;;;;;;9.38;8.00;;;;;;;17.65;100.00;97355.72;5032734;28;20045;-74
2021/07/17 03:49:29;;;;;;;15.02;7.60;;;;;;;17.52;100.00;97354.16;5033030;28;20051;-73
2021/07/17 03:51:54;;;;;;;12.35;8.95;;;;;;;17.47;100.00;97370.22;5033031;28;20056;-74
2021/07/17 03:54:20;;;;;;;9.95;8.13;;;;;;;17.45;100.00;97361.44;5031367;28;20120;-74
2021/07/17 03:56:45;;;;;;;9.48;8.48;;;;;;;17.49;100.00;97356.81;5033291;28;20026;-75
2021/07/17 03:59:11;;;;;;;10.48;8.40;;;;;;;17.46;100.00;97358.34;5032989;28;20021;-75
2021/07/17 04:01:37;;;;;;;8.95;7.35;;;;;;;17.31;100.00;97345.31;5034315;28;20025;-74
2021/07/17 04:04:03;;;;;;;8.07;7.25;;;;;;;17.33;100.00;97331.91;5032817;28;20025;-75
2021/07/17 04:06:29;;;;;;;9.75;8.80;;;;;;;17.35;100.00;97339.88;5014714;28;20025;-76
2021/07/17 04:08:54;;;;;;;9.20;8.30;;;;;;;17.44;100.00;97346.84;5032662;28;20099;-75
2021/07/17 04:11:19;;;;;;;8.77;7.85;;;;;;;17.45;100.00;97353.97;5032105;28;20478;-78
2021/07/17 04:13:45;;;;;;;9.75;8.65;;;;;;;17.56;100.00;97346.00;5032412;28;20037;-75
2021/07/17 04:16:10;;;;;;;10.70;7.38;;;;;;;17.64;100.00;97353.28;5031099;28;20108;-75
2021/07/17 04:18:35;;;;;;;8.65;7.15;;;;;;;17.86;100.00;97360.97;5032078;28;20063;-77
2021/07/17 04:21:01;;;;;;;9.68;6.55;;;;;;;17.86;100.00;97363.75;5014209;28;20021;-76
2021/07/17 04:23:26;;;;;;;8.90;7.60;;;;;;;17.88;100.00;97368.94;5032383;28;20025;-74
2021/07/17 04:25:52;;;;;;;9.43;6.57;;;;;;;17.95;100.00;97388.50;5014944;28;20040;-74
2021/07/17 04:28:17;;;;;;;8.32;6.65;;;;;;;18.03;100.00;97396.63;5030803;28;20133;-74
2021/07/17 04:30:43;;;;;;;6.43;5.80;;;;;;;17.92;100.00;97392.75;5032271;28;20045;-74
2021/07/17 04:33:08;;;;;;;8.05;7.00;;;;;;;18.19;100.00;97405.72;5014339;28;20026;-74
2021/07/17 04:35:34;;;;;;;6.75;6.05;;;;;;;18.23;100.00;97407.78;5030796;28;20021;-75
2021/07/17 04:37:59;;;;;;;8.18;5.90;;;;;;;18.32;100.00;97405.63;5014309;28;20030;-75
2021/07/17 04:40:25;;;;;;;9.25;6.22;;;;;;;18.15;100.00;97407.59;5031575;28;20030;-75
2021/07/17 04:42:50;;;;;;;7.15;5.38;;;;;;;18.10;100.00;97407.88;5013221;28;20117;-74
2021/07/17 04:45:16;;;;;;;6.15;5.45;;;;;;;18.11;100.00;97412.22;5013263;28;20029;-74
2021/07/17 04:47:41;;;;;;;6.47;5.82;;;;;;;18.17;100.00;97412.75;5013426;28;20087;-75
2021/07/17 04:50:07;;;;;;;7.57;6.85;;;;;;;18.16;100.00;97420.28;5029778;28;20363;-76
2021/07/17 04:52:33;;;;;;;7.95;6.00;;;;;;;18.05;100.00;97424.72;5030503;28;20037;-76
2021/07/17 04:54:58;;;;;;;6.53;5.93;;;;;;;18.10;100.00;97426.44;5013629;28;20439;-77
2021/07/17 04:57:24;;;;;;;7.07;5.55;;;;;;;18.16;100.00;97420.28;5031135;28;20565;-76
2021/07/17 04:59:49;;;;;;;7.32;6.53;;;;;;;18.12;100.00;97436.00;5013816;28;20032;-75
2021/07/17 05:02:14;;;;;;;9.55;6.65;;;;;;;18.03;100.00;97446.44;5031902;28;20048;-75
2021/07/17 05:04:40;;;;;;;8.23;7.47;;;;;;;18.05;100.00;97446.88;5034551;28;20021;-74
2021/07/17 05:07:05;;;;;;;18.58;7.28;;;;;;;18.16;100.00;97442.44;5031060;28;20474;-76
2021/07/17 05:09:30;;;;;;;8.43;7.22;;;;;;;18.11;100.00;97431.59;5032360;28;20079;-75
2021/07/17 05:11:56;;;;;;;7.03;6.32;;;;;;;18.17;100.00;97441.25;5031886;28;20033;-75
2021/07/17 05:14:21;;;;;;;8.43;7.22;;;;;;;18.19;100.00;97429.84;5033357;28;20076;-77
2021/07/17 05:16:46;;;;;;;7.78;6.60;;;;;;;18.27;100.00;97428.84;5031892;28;20029;-76
2021/07/17 05:19:12;;;;;;;8.05;6.85;;;;;;;18.20;100.00;97425.88;5030044;28;20432;-74
2021/07/17 05:21:37;;;;;;;10.05;7.30;;;;;;;18.18;100.00;97440.09;5030733;28;20046;-74
2021/07/17 05:24:04;;;;;;;10.27;8.00;;;;;;;18.15;100.00;97434.47;5031061;28;20025;-75
2021/07/17 05:26:29;;;;;;;13.82;7.68;;;;;;;18.14;100.00;97455.81;5031486;28;20380;-76
2021/07/17 05:28:54;;;;;;;9.93;8.60;;;;;;;18.32;100.00;97444.38;5029553;28;20048;-76
2021/07/17 05:31:20;;;;;;;14.48;7.25;;;;;;;18.18;100.00;97437.34;5013414;28;20115;-75
2021/07/17 05:33:45;;;;;;;7.90;6.40;;;;;;;18.16;100.00;97436.91;5013165;28;20017;-75
2021/07/17 05:36:11;;;;;;;9.43;8.48;;;;;;;18.10;100.00;97415.38;5031022;28;20179;-76
2021/07/17 05:38:36;;;;;;;9.93;7.20;;;;;;;18.09;100.00;97433.13;5032970;28;20056;-76
2021/07/17 05:41:02;;;;;;;8.13;6.78;;;;;;;18.25;100.00;97416.53;5015353;28;20014;-76
2021/07/17 05:43:27;;;;;;;8.63;7.72;;;;;;;18.13;100.00;97418.22;5031095;28;20084;-76
2021/07/17 05:45:54;;;;;;;8.18;6.30;;;;;;;18.25;100.00;97417.31;5029434;28;20057;-75
2021/07/17 05:48:20;;;;;;;10.70;6.90;;;;;;;18.20;100.00;97404.53;5030893;28;20017;-77
2021/07/17 05:50:48;;;;;;;8.45;6.55;;;;;;;18.32;100.00;97411.16;5031407;28;20025;-77
2021/07/17 05:53:14;;;;;;;11.05;6.00;;;;;;;18.24;100.00;97414.91;5029324;28;20038;-74
2021/07/17 05:55:39;;;;;;;11.85;7.35;;;;;;;18.18;100.00;97411.59;5030889;28;20120;-74
2021/07/17 05:58:05;;;;;;;9.30;6.50;;;;;;;18.31;100.00;97415.09;5029400;28;20104;-75
2021/07/17 06:00:31;;;;;;;7.40;6.55;;;;;;;18.48;100.00;97432.13;5012809;28;20570;-74
2021/07/17 06:02:56;;;;;;;8.68;7.00;;;;;;;18.42;100.00;97432.78;5012781;28;20037;-74
2021/07/17 06:05:21;;;;;;;7.57;6.50;;;;;;;18.42;100.00;97428.00;5028853;28;20021;-74
2021/07/17 06:07:47;;;;;;;9.32;6.88;;;;;;;18.35;100.00;97424.28;5027942;28;20021;-75
2021/07/17 06:10:13;;;;;;;7.38;6.47;;;;;;;18.49;100.00;97421.84;5012554;28;20466;-79
2021/07/17 06:12:39;;;;;;;8.75;6.25;;;;;;;18.55;100.00;97426.78;5012464;28;20096;-75
2021/07/17 06:15:06;;;;;;;7.22;6.47;;;;;;;18.70;100.00;97437.03;5030395;28;20083;-76
2021/07/17 06:17:31;;;;;;;6.82;6.15;;;;;;;18.53;100.00;97428.31;5011973;28;20020;-76
2021/07/17 06:19:57;;;;;;;7.43;6.38;;;;;;;18.54;100.00;97441.00;5029922;28;20494;-77
2021/07/17 06:22:22;;;;;;;7.32;6.15;;;;;;;18.56;100.00;97435.91;5030297;28;20064;-76
2021/07/17 06:24:48;;;;;;;8.43;6.78;;;;;;;18.57;100.00;97429.22;5030156;28;20104;-76
2021/07/17 06:27:13;;;;;;;8.13;5.70;;;;;;;18.57;100.00;97437.53;5030215;28;20476;-78
2021/07/17 06:29:39;;;;;;;6.63;6.03;;;;;;;18.54;100.00;97446.56;5012076;28;20045;-78
2021/07/17 06:32:05;;;;;;;10.45;7.85;;;;;;;18.60;100.00;97459.78;5012587;28;20034;-78
2021/07/17 06:34:30;;;;;;;8.77;6.47;;;;;;;18.57;100.00;97468.00;5030023;28;20509;-77
2021/07/17 06:36:56;;;;;;;6.85;6.25;;;;;;;18.58;100.00;97461.28;5030072;28;20532;-76
2021/07/17 06:39:21;;;;;;;7.85;6.35;;;;;;;18.51;100.00;97464.66;5030034;28;20103;-77
2021/07/17 06:41:47;;;;;;;10.00;5.97;;;;;;;18.72;100.00;97481.00;5012234;28;20117;-74
2021/07/17 06:44:12;;;;;;;10.23;8.05;;;;;;;18.85;100.00;97478.94;5012350;28;20045;-78
2021/07/17 06:46:38;;;;;;;7.43;6.63;;;;;;;18.85;100.00;97485.28;5012030;28;20025;-75
2021/07/17 06:49:04;;;;;;;11.57;7.75;;;;;;;18.99;100.00;97490.34;5029697;28;20061;-74
2021/07/17 06:51:31;;;;;;;10.25;4.95;;;;;;;18.99;100.00;97502.25;5012302;28;20138;-74
2021/07/17 06:53:57;;;;;;;16.55;12.55;;;;;;;19.16;100.00;97501.84;5029883;28;20051;-75
2021/07/17 06:56:23;;;;;;;10.68;5.50;;;;;;;18.97;100.00;97504.56;5012601;28;20068;-76
2021/07/17 06:58:48;;;;;;;5.88;5.30;;;;;;;18.78;100.00;97509.25;5029914;28;20034;-74
2021/07/17 07:01:13;;;;;;;8.00;5.20;;;;;;;18.75;100.00;97513.56;5029642;28;20398;-74
2021/07/17 07:03:40;;;;;;;5.20;4.70;;;;;;;18.62;100.00;97512.84;5029724;28;20076;-74
2021/07/17 07:06:05;;;;;;;5.00;4.50;;;;;;;18.70;100.00;97524.91;5029512;28;20044;-75
2021/07/17 07:08:32;;;;;;;5.72;5.15;;;;;;;18.77;100.00;97533.38;5029986;28;20017;-74
2021/07/17 07:10:57;;;;;;;8.13;4.30;;;;;;;18.61;100.00;97524.28;5029654;28;20026;-74
2021/07/17 07:13:23;;;;;;;6.10;4.68;;;;;;;18.58;100.00;97534.09;5029619;28;20072;-74
2021/07/17 07:15:48;;;;;;;7.93;5.55;;;;;;;18.67;100.00;97547.78;5008646;28;20391;-77
2021/07/17 07:18:14;;;;;;;8.52;5.13;;;;;;;18.62;100.00;97539.75;5011595;28;20044;-75
2021/07/17 07:20:40;;;;;;;6.70;5.15;;;;;;;18.46;100.00;97545.25;5013569;28;20104;-74
2021/07/17 07:23:05;;;;;;;5.82;4.47;;;;;;;18.61;100.00;97547.25;5026716;28;20033;-73
2021/07/17 07:25:31;;;;;;;7.95;4.70;;;;;;;18.63;100.00;97541.38;5022695;28;20056;-73
2021/07/17 07:27:57;;;;;;;32.00;5.05;;;;;;;18.62;100.00;97539.75;5024889;28;20054;-80
2021/07/17 07:30:22;;;;;;;8.02;3.90;;;;;;;18.69;100.00;97548.25;5015116;28;20021;-86
2021/07/17 07:32:49;;;;;;;6.13;4.55;;;;;;;18.78;100.00;97546.09;5022582;28;20022;-80
2021/07/17 07:35:20;;;;;;;5.53;3.88;;;;;;;18.92;100.00;97546.41;5016335;28;20025;-85
2021/07/17 07:37:45;;;;;;;9.68;4.97;;;;;;;18.96;100.00;97543.72;5017103;28;20065;-87
2021/07/17 07:40:12;;;;;;;5.65;3.92;;;;;;;18.90;100.00;97551.53;5024250;28;20009;-83
2021/07/17 07:42:38;;;;;;;6.22;5.18;;;;;;;18.91;100.00;97553.16;5019861;28;20442;-82
2021/07/17 07:45:05;;;;;;;7.60;4.20;;;;;;;18.82;100.00;97547.00;5027208;28;20036;-86
2021/07/17 07:47:30;;;;;;;6.53;4.35;;;;;;;18.87;100.00;97560.56;5022634;28;20034;-86
2021/07/17 07:49:57;;;;;;;7.72;5.25;;;;;;;18.80;100.00;97563.16;5023690;28;20025;-87
2021/07/17 07:52:22;;;;;;;4.82;4.32;;;;;;;18.87;100.00;97571.66;5024924;28;20045;-87
2021/07/17 07:54:48;;;;;;;4.72;4.15;;;;;;;18.78;100.00;97576.56;5030525;28;20017;-87
2021/07/17 07:57:13;;;;;;;9.48;5.90;;;;;;;18.88;100.00;97581.59;5016069;28;20022;-85
2021/07/17 07:59:39;;;;;;;4.57;4.07;;;;;;;18.85;100.00;97578.72;5019428;28;20029;-87
2021/07/17 08:02:04;;;;;;;6.32;4.93;;;;;;;18.99;100.00;97585.41;5028747;28;20041;-84
2021/07/17 08:04:30;;;;;;;5.32;4.28;;;;;;;19.15;100.00;97585.38;5013390;28;20026;-86
2021/07/17 08:06:56;;;;;;;5.13;3.92;;;;;;;19.30;100.00;97589.28;5017485;28;20124;-80
2021/07/17 08:09:21;;;;;;;15.07;8.88;;;;;;;19.27;100.00;97580.53;5018425;28;21449;-78
2021/07/17 08:11:47;;;;;;;3.67;3.33;;;;;;;19.21;100.00;97584.75;5020588;28;20491;-82
2021/07/17 08:14:13;;;;;;;6.00;3.95;;;;;;;19.27;100.00;97586.09;5020985;28;20026;-81
2021/07/17 08:16:38;;;;;;;5.72;3.20;;;;;;;19.36;100.00;97585.09;5018879;28;20052;-78
2021/07/17 08:19:04;;;;;;;2.97;2.67;;;;;;;19.33;100.00;97583.03;5019423;28;20022;-79
2021/07/17 08:21:29;;;;;;;7.30;3.10;;;;;;;19.42;100.00;97584.47;5009999;28;20018;-76
2021/07/17 08:23:54;;;;;;;5.43;2.67;;;;;;;19.49;98.67;97583.81;5022284;28;20547;-79
2021/07/17 08:26:20;;;;;;;3.40;2.05;;;;;;;19.52;95.08;97585.88;5011960;28;20033;-80
2021/07/17 08:28:45;;;;;;;4.05;2.10;;;;;;;19.64;95.29;97588.53;5009562;28;20160;-76
2021/07/17 08:31:10;;;;;;;3.85;2.95;;;;;;;19.76;95.46;97585.63;5009505;28;20026;-82
2021/07/17 08:33:36;;;;;;;2.20;2.00;;;;;;;20.04;96.44;97582.63;5011280;28;20021;-80
2021/07/17 08:36:02;;;;;;;3.80;2.42;;;;;;;20.01;92.02;97570.28;5012134;28;20064;-85
2021/07/17 08:38:27;;;;;;;4.60;2.70;;;;;;;20.21;94.13;97569.06;5032733;28;20017;-83
2021/07/17 08:40:55;;;;;;;2.95;2.20;;;;;;;20.30;93.06;97569.69;5021268;28;20016;-79
2021/07/17 08:43:23;;;;;;;3.65;2.17;;;;;;;20.42;93.24;97573.47;5012505;28;20435;-80
2021/07/17 08:45:50;;;;;;;4.00;2.45;;;;;;;20.55;91.92;97578.47;5012892;28;20109;-81
2021/07/17 08:48:18;;;;;;;3.45;2.22;;;;;;;20.64;95.84;97576.25;5019206;28;20025;-79
2021/07/17 08:50:44;;;;;;;2.53;2.25;;;;;;;20.66;92.64;97578.69;5012702;28;20022;-76
2021/07/17 08:53:10;;;;;;;3.90;2.20;;;;;;;20.41;93.70;97577.41;5016676;28;20402;-80
2021/07/17 08:55:36;;;;;;;6.22;2.50;;;;;;;20.52;93.21;97582.00;5019075;28;20111;-76
2021/07/17 08:58:01;;;;;;;3.40;2.65;;;;;;;20.56;93.29;97573.72;5017777;28;20482;-80
2021/07/17 09:00:32;;;;;;;6.25;2.60;;;;;;;20.67;94.58;97577.50;5012500;28;20040;-78
2021/07/17 09:03:05;;;;;;;3.50;3.03;;;;;;;20.77;93.22;97563.78;5032035;28;20053;-77
2021/07/17 09:05:36;;;;;;;3.58;2.60;;;;;;;20.71;92.22;97570.00;5024053;28;20049;-79
2021/07/17 09:08:02;;;;;;;5.93;5.07;;;;;;;20.92;90.79;97569.59;5017742;28;20076;-75
2021/07/17 09:10:47;;;;;;;2.60;2.13;;;;;;;21.20;88.77;97570.88;5020812;28;20097;-76
2021/07/17 09:13:29;;;;;;;2.70;2.22;;;;;;;21.32;91.76;97581.78;5021381;28;20030;-79
2021/07/17 09:16:12;;;;;;;5.50;1.80;;;;;;;21.09;87.73;97575.47;5005071;28;20517;-77
2021/07/17 09:18:46;;;;;;;3.55;2.10;;;;;;;20.88;86.56;97572.31;5006772;28;20026;-78
2021/07/17 09:21:25;;;;;;;3.15;2.00;;;;;;;21.01;87.61;97579.28;5027226;28;20035;-83
2021/07/17 09:23:54;;;;;;;2.58;1.40;;;;;;;21.16;87.18;97591.47;5030119;28;20101;-85
2021/07/17 09:26:31;;;;;;;1.58;1.42;;;;;;;21.26;85.63;97580.50;5025179;28;20036;-87
2021/07/17 09:28:59;;;;;;;3.72;1.75;;;;;;;21.19;86.16;97580.38;5031398;28;20072;-85
2021/07/17 09:31:27;;;;;;;4.13;1.65;;;;;;;21.10;84.58;97574.28;5030029;28;20018;-84
2021/07/17 09:34:02;;;;;;;3.22;1.60;;;;;;;21.07;85.79;97583.34;5018342;28;20049;-84
2021/07/17 09:36:27;;;;;;;1.73;1.20;;;;;;;20.97;83.63;97575.63;5025899;28;20030;-85
2021/07/17 09:38:52;;;;;;;1.98;1.35;;;;;;;20.98;84.05;97580.03;4999395;28;20099;-83
2021/07/17 09:41:20;;;;;;;2.63;1.38;;;;;;;21.14;85.19;97577.13;5023191;28;20030;-87
2021/07/17 09:43:57;;;;;;;2.28;1.60;;;;;;;21.12;85.71;97585.03;5017267;28;20095;-84
2021/07/17 09:46:27;;;;;;;8.23;1.85;;;;;;;21.10;84.94;97588.19;5024261;28;20048;-80
2021/07/17 09:49:00;;;;;;;2.30;1.48;;;;;;;21.09;83.69;97597.72;5000204;28;20103;-85
2021/07/17 09:51:30;;;;;;;3.53;1.67;;;;;;;21.07;83.12;97600.03;5011123;28;20029;-80
2021/07/17 09:54:01;;;;;;;9.10;1.60;;;;;;;21.09;84.76;97603.28;5025209;28;20038;-78
2021/07/17 09:56:31;;;;;;;1.75;1.35;;;;;;;21.06;83.34;97609.56;5016966;28;20028;-83
2021/07/17 09:58:59;;;;;;;1.23;1.10;;;;;;;21.16;82.90;97608.16;5013405;28;20032;-85
2021/07/17 10:01:33;;;;;;;1.52;1.10;;;;;;;21.30;82.66;97609.16;5020154;28;20109;-82
2021/07/17 10:04:01;;;;;;;2.35;1.48;;;;;;;21.31;80.23;97605.22;5005416;28;20017;-88
2021/07/17 10:06:32;;;;;;;2.42;1.52;;;;;;;21.43;80.97;97618.13;5020256;28;20056;-83
2021/07/17 10:09:20;;;;;;;6.90;2.67;;;;;;;21.19;82.17;97588.75;5001540;28;20079;-84
2021/07/17 10:11:58;;;;;;;6.10;1.67;;;;;;;21.24;82.06;97609.88;5003808;28;20017;-85
2021/07/17 10:14:28;;;;;;;4.18;2.00;;;;;;;21.12;83.29;97618.41;5018496;28;20033;-76
2021/07/17 10:16:56;;;;;;;5.55;1.90;;;;;;;21.21;84.78;97616.16;5006553;28;20018;-79
2021/07/17 10:19:24;;;;;;;6.88;2.63;;;;;;;21.23;83.24;97617.44;5027607;28;20066;-79
2021/07/17 10:21:50;;;;;;;2.75;1.50;;;;;;;21.42;82.18;97612.94;5027727;28;20104;-79
2021/07/17 10:24:16;;;;;;;2.22;1.50;;;;;;;21.51;82.11;97630.97;5011495;28;20112;-78
2021/07/17 10:26:43;;;;;;;2.45;1.58;;;;;;;21.71;81.95;97626.88;5009158;28;20519;-79
2021/07/17 10:29:11;;;;;;;8.52;1.92;;;;;;;21.67;81.55;97628.84;5010055;28;20046;-78
2021/07/17 10:31:38;;;;;;;2.15;1.65;;;;;;;21.52;82.51;97626.22;5011237;28;20037;-78
2021/07/17 10:34:04;;;;;;;3.08;1.50;;;;;;;21.58;82.20;97625.50;5008501;28;20175;-78
2021/07/17 10:36:34;;;;;;;2.38;1.70;;;;;;;21.54;82.58;97630.22;5017933;28;20530;-75
2021/07/17 10:39:05;;;;;;;2.63;1.85;;;;;;;21.71;82.67;97628.88;5008911;28;20466;-78
2021/07/17 10:41:35;;;;;;;1.42;1.33;;;;;;;21.79;82.46;97620.25;5017002;28;20017;-75
2021/07/17 10:44:01;;;;;;;2.55;1.73;;;;;;;21.75;83.69;97619.41;5019470;28;20386;-75
2021/07/17 10:46:36;;;;;;;3.50;2.10;;;;;;;21.86;83.67;97630.69;5020154;28;20014;-75
2021/07/17 10:49:05;;;;;;;3.30;1.90;;;;;;;21.87;81.78;97626.72;5009112;28;20030;-76
2021/07/17 10:51:36;;;;;;;7.25;2.40;;;;;;;21.84;81.78;97633.03;4995537;28;20088;-78
2021/07/17 10:54:05;;;;;;;3.45;1.95;;;;;;;22.00;81.43;97630.91;5015827;28;20025;-87
2021/07/17 10:56:31;;;;;;;6.20;1.73;;;;;;;22.01;80.94;97632.50;5035207;28;20509;-82
2021/07/17 10:59:00;;;;;;;3.88;1.67;;;;;;;21.99;79.05;97623.72;5034148;28;20025;-85
2021/07/17 11:01:27;;;;;;;2.85;2.15;;;;;;;21.92;82.50;97622.84;5035492;28;20375;-76
2021/07/17 11:03:53;;;;;;;4.78;1.90;;;;;;;21.65;81.42;97625.59;5016126;28;20051;-80
2021/07/17 11:06:33;;;;;;;2.35;1.55;;;;;;;21.67;82.86;97639.16;5014704;28;20096;-76
2021/07/17 11:09:27;;;;;;;2.15;1.52;;;;;;;21.35;84.53;97639.50;5017922;28;20497;-80
2021/07/17 11:12:19;;;;;;;1.98;1.70;;;;;;;21.24;85.13;97643.25;5021970;28;20103;-76
2021/07/17 11:14:45;;;;;;;5.65;1.77;;;;;;;21.20;85.96;97637.66;5026455;28;20035;-80
2021/07/17 11:17:11;;;;;;;2.97;2.00;;;;;;;21.22;86.78;97643.63;5022314;28;20033;-82
2021/07/17 11:19:36;;;;;;;3.88;1.95;;;;;;;21.31;87.19;97637.81;5030866;28;20056;-83
2021/07/17 11:22:10;;;;;;;2.53;1.73;;;;;;;21.23;86.58;97642.47;5015140;28;20148;-81